Time;durP1;ratioP1;P1;durP2;ratioP2;P2;SDS_P1;SDS_P2;PMS_P1;PMS_P2;Temp;Humidity;BMP_temperature;BMP_pressure;BME280_temperature;BME280_humidity;BME280_pressure;Samples;Min_cycle;Max_cycle;Signal;HPM_P1;HPM_P2
2022/07/10 00:01:41;;;;;;;17.45;8.28;;;;;;;21.17;100.00;98735.90;1703710;84;21762;-73
2022/07/10 00:04:08;;;;;;;12.88;7.45;;;;;;;21.14;100.00;98740.59;1703792;84;21025;-73
2022/07/10 00:06:36;;;;;;;12.78;6.42;;;;;;;21.12;100.00;98731.77;1703549;83;21608;-73
2022/07/10 00:09:03;;;;;;;11.38;6.25;;;;;;;21.10;100.00;98731.77;1703860;84;21040;-73
2022/07/10 00:11:31;;;;;;;12.58;6.08;;;;;;;21.07;100.00;98733.16;1703606;83;21152;-73
2022/07/10 00:13:58;;;;;;;8.98;5.45;;;;;;;21.04;100.00;98729.58;1694413;83;21071;-73
2022/07/10 00:16:26;;;;;;;8.78;5.33;;;;;;;21.00;100.00;98729.81;1703685;83;21013;-73
2022/07/10 00:18:53;;;;;;;7.53;5.15;;;;;;;20.99;100.00;98735.05;1694095;84;21032;-72
2022/07/10 00:21:20;;;;;;;10.58;5.47;;;;;;;20.97;100.00;98722.95;1694149;84;21567;-72
2022/07/10 00:23:47;;;;;;;10.10;5.50;;;;;;;20.96;100.00;98730.09;1694442;84;21001;-73
2022/07/10 00:26:14;;;;;;;7.42;5.40;;;;;;;20.94;100.00;98722.67;1703786;83;21060;-73
2022/07/10 00:28:41;;;;;;;8.13;5.40;;;;;;;20.91;100.00;98729.55;1671263;84;21032;-73
2022/07/10 00:31:10;;;;;;;8.78;5.50;;;;;;;20.89;100.00;98727.59;1694224;84;21016;-73
2022/07/10 00:33:37;;;;;;;14.93;5.40;;;;;;;20.84;100.00;98732.55;1703874;84;20989;-73
2022/07/10 00:36:06;;;;;;;8.48;5.58;;;;;;;20.82;100.00;98732.00;1694038;83;21056;-72
2022/07/10 00:38:34;;;;;;;10.63;5.90;;;;;;;20.80;100.00;98723.73;1703914;84;21044;-73
2022/07/10 00:41:01;;;;;;;8.83;5.53;;;;;;;20.75;100.00;98730.05;1694102;84;21553;-74
2022/07/10 00:43:28;;;;;;;8.93;5.45;;;;;;;20.73;100.00;98725.35;1703913;84;21055;-73
2022/07/10 00:45:55;;;;;;;9.98;5.50;;;;;;;20.72;100.00;98723.72;1704033;84;21048;-73
2022/07/10 00:48:23;;;;;;;10.90;5.05;;;;;;;20.70;100.00;98721.80;1703738;84;21129;-73
2022/07/10 00:50:51;;;;;;;9.03;5.50;;;;;;;20.71;100.00;98703.39;1703828;84;21021;-74
2022/07/10 00:53:18;;;;;;;9.55;4.92;;;;;;;20.69;100.00;98695.41;1704159;84;21561;-73
2022/07/10 00:55:46;;;;;;;13.20;5.70;;;;;;;20.67;100.00;98708.59;1703788;84;21570;-73
2022/07/10 00:58:13;;;;;;;9.05;5.80;;;;;;;20.65;100.00;98706.11;1704153;83;21060;-73
2022/07/10 01:00:40;;;;;;;8.55;5.35;;;;;;;20.64;100.00;98694.02;1703938;82;21064;-73
2022/07/10 01:03:07;;;;;;;11.35;5.80;;;;;;;20.62;100.00;98681.93;1706222;84;20981;-71
2022/07/10 01:05:34;;;;;;;13.45;5.90;;;;;;;20.60;100.00;98684.09;1695208;84;21092;-73
2022/07/10 01:08:01;;;;;;;10.70;5.92;;;;;;;20.59;100.00;98676.97;1694519;83;21525;-73
2022/07/10 01:10:29;;;;;;;12.05;6.20;;;;;;;20.57;100.00;98679.13;1703726;84;21592;-73
2022/07/10 01:12:57;;;;;;;8.38;5.67;;;;;;;20.56;100.00;98686.30;1703525;82;21080;-72
2022/07/10 01:15:24;;;;;;;9.83;5.92;;;;;;;20.52;100.00;98673.63;1703947;84;21040;-72
2022/07/10 01:17:53;;;;;;;10.25;6.05;;;;;;;20.49;100.00;98669.52;1703898;83;21048;-72
2022/07/10 01:20:21;;;;;;;12.25;6.00;;;;;;;20.47;100.00;98669.52;1703703;84;21060;-73
2022/07/10 01:22:48;;;;;;;9.75;6.08;;;;;;;20.46;100.00;98665.11;1704090;84;21048;-72
2022/07/10 01:25:15;;;;;;;17.15;5.97;;;;;;;20.45;100.00;98649.19;1704023;84;21021;-72
2022/07/10 01:27:43;;;;;;;10.00;5.78;;;;;;;20.46;100.00;98659.62;1694270;83;21015;-73
2022/07/10 01:30:11;;;;;;;10.25;5.62;;;;;;;20.46;100.00;98659.62;1704006;84;21059;-73
2022/07/10 01:32:42;;;;;;;10.38;6.08;;;;;;;20.44;100.00;98654.95;1703706;84;21091;-72
2022/07/10 01:35:09;;;;;;;8.68;5.80;;;;;;;20.43;100.00;98654.66;1694128;84;21593;-72
2022/07/10 01:37:38;;;;;;;9.55;5.60;;;;;;;20.41;100.00;98649.44;1703972;84;21052;-73
2022/07/10 01:40:07;;;;;;;10.68;5.70;;;;;;;20.39;100.00;98642.58;1703614;84;21036;-73
2022/07/10 01:42:35;;;;;;;10.13;5.55;;;;;;;20.36;100.00;98643.11;1704003;84;21509;-73
2022/07/10 01:45:02;;;;;;;10.05;5.72;;;;;;;20.34;100.00;98631.58;1703934;84;20992;-73
2022/07/10 01:47:30;;;;;;;15.43;6.95;;;;;;;20.32;100.00;98626.91;1703734;84;21032;-72
2022/07/10 01:49:57;;;;;;;15.93;7.67;;;;;;;20.30;100.00;98618.94;1703975;84;21056;-73
2022/07/10 01:52:24;;;;;;;19.30;8.20;;;;;;;20.27;100.00;98609.86;1703844;84;21028;-73
2022/07/10 01:54:51;;;;;;;20.08;8.75;;;;;;;20.25;100.00;98621.11;1703571;84;21160;-73
2022/07/10 01:57:18;;;;;;;18.82;9.08;;;;;;;20.22;100.00;98608.47;1703739;84;21036;-73
2022/07/10 01:59:45;;;;;;;20.20;10.23;;;;;;;20.20;100.00;98606.02;1703981;83;21036;-73
2022/07/10 02:02:12;;;;;;;21.12;11.78;;;;;;;20.21;100.00;98604.09;1703905;84;21020;-72
2022/07/10 02:04:42;;;;;;;23.18;11.83;;;;;;;20.20;100.00;98601.06;1703805;83;21079;-73
2022/07/10 02:07:15;;;;;;;21.75;10.75;;;;;;;20.19;100.00;98599.42;1703852;84;21083;-73
2022/07/10 02:09:42;;;;;;;20.20;11.37;;;;;;;20.17;100.00;98591.98;1704219;84;21071;-73
2022/07/10 02:12:10;;;;;;;21.60;10.90;;;;;;;20.17;100.00;98586.50;1703545;82;21198;-72
2022/07/10 02:14:37;;;;;;;17.30;8.25;;;;;;;20.16;100.00;98580.19;1672339;84;21008;-73
2022/07/10 02:17:04;;;;;;;13.28;6.60;;;;;;;20.15;100.00;98577.72;1703976;84;21509;-73
2022/07/10 02:19:32;;;;;;;12.35;6.53;;;;;;;20.13;100.00;98571.67;1703693;84;21060;-72
2022/07/10 02:21:59;;;;;;;10.85;6.10;;;;;;;20.11;100.00;98560.97;1703888;82;21036;-71
2022/07/10 02:24:26;;;;;;;9.88;5.95;;;;;;;20.09;100.00;98556.30;1703788;84;21096;-72
2022/07/10 02:26:55;;;;;;;13.20;6.10;;;;;;;20.07;100.00;98546.96;1703950;84;21044;-73
2022/07/10 02:31:50;;;;;;;10.08;5.95;;;;;;;20.05;100.00;98542.30;1584456;90;21061;-73
2022/07/10 02:34:18;;;;;;;12.30;6.67;;;;;;;20.06;100.00;98537.63;1584262;91;21579;-73
2022/07/10 02:36:45;;;;;;;9.45;6.30;;;;;;;20.05;100.00;98528.58;1584261;91;21155;-72
2022/07/10 02:39:12;;;;;;;10.38;6.78;;;;;;;20.05;100.00;98525.84;1584326;90;21089;-73
2022/07/10 02:41:40;;;;;;;12.40;7.28;;;;;;;20.06;100.00;98517.05;1584309;91;21137;-73
2022/07/10 02:44:08;;;;;;;10.93;7.30;;;;;;;20.05;100.00;98506.63;1586174;90;21065;-73
2022/07/10 02:46:35;;;;;;;13.03;7.95;;;;;;;20.06;100.00;98495.10;1586397;89;21081;-73
2022/07/10 02:49:04;;;;;;;17.40;10.08;;;;;;;20.06;100.00;98487.72;1588268;90;21092;-72
2022/07/10 02:51:31;;;;;;;18.15;9.73;;;;;;;20.12;100.00;98480.88;1587942;90;21025;-72
2022/07/10 02:53:58;;;;;;;13.80;8.90;;;;;;;20.15;100.00;98478.94;1586474;90;21097;-73
2022/07/10 02:56:25;;;;;;;13.50;8.58;;;;;;;20.19;100.00;98473.20;1586550;89;21636;-73
2022/07/10 02:58:53;;;;;;;14.60;9.13;;;;;;;20.24;100.00;98463.60;1586530;90;21077;-73
2022/07/10 03:01:20;;;;;;;14.87;8.43;;;;;;;20.30;100.00;98465.24;1586495;90;21049;-72
2022/07/10 03:03:47;;;;;;;17.62;8.75;;;;;;;20.38;100.00;98462.48;1586426;90;21104;-73
2022/07/10 03:06:14;;;;;;;19.70;8.55;;;;;;;20.43;100.00;98460.59;1586209;90;21122;-72
2022/07/10 03:08:41;;;;;;;18.42;8.43;;;;;;;20.49;100.00;98465.53;1586427;90;21105;-72
2022/07/10 03:11:08;;;;;;;14.15;7.28;;;;;;;20.56;100.00;98476.25;1586448;90;21558;-74
2022/07/10 03:13:36;;;;;;;15.05;7.95;;;;;;;20.59;100.00;98469.66;1586153;89;21622;-72
2022/07/10 03:16:03;;;;;;;17.12;8.30;;;;;;;20.65;100.00;98472.69;1586351;90;21048;-72
2022/07/10 03:18:31;;;;;;;19.48;9.88;;;;;;;20.70;100.00;98475.15;1586091;90;21097;-72
2022/07/10 03:20:58;;;;;;;18.10;10.10;;;;;;;20.74;100.00;98487.25;1586574;90;21101;-72
2022/07/10 03:23:26;;;;;;;19.70;10.50;;;;;;;20.78;100.00;98488.34;1586297;90;21073;-72
2022/07/10 03:25:53;;;;;;;18.02;10.53;;;;;;;20.83;100.00;98497.95;1586466;89;21022;-73
2022/07/10 03:28:21;;;;;;;24.65;12.53;;;;;;;20.87;100.00;98505.91;1627203;84;21048;-73
2022/07/10 03:30:48;;;;;;;19.62;12.40;;;;;;;20.93;100.00;98513.59;1698785;84;21091;-73
2022/07/10 03:33:17;;;;;;;18.25;11.57;;;;;;;20.96;100.00;98522.09;1700991;84;21048;-73
2022/07/10 03:35:44;;;;;;;15.23;9.75;;;;;;;21.00;100.00;98523.74;1673577;84;20992;-73
2022/07/10 03:38:11;;;;;;;15.50;8.75;;;;;;;21.02;100.00;98533.38;1701236;83;21106;-71
2022/07/10 03:40:38;;;;;;;12.95;6.62;;;;;;;21.04;100.00;98531.17;1701286;84;21438;-73
2022/07/10 03:43:05;;;;;;;11.70;6.17;;;;;;;21.08;100.00;98540.24;1703835;83;21026;-73
2022/07/10 03:45:34;;;;;;;9.73;5.67;;;;;;;21.11;100.00;98542.44;1703639;83;21056;-73
2022/07/10 03:48:01;;;;;;;7.75;5.62;;;;;;;21.16;100.00;98546.53;1703875;84;21523;-73
2022/07/10 03:50:28;;;;;;;6.83;5.35;;;;;;;21.19;100.00;98545.98;1694380;83;21025;-73
2022/07/10 03:52:55;;;;;;;8.55;5.20;;;;;;;21.24;100.00;98540.48;1704087;82;21541;-73
2022/07/10 03:55:22;;;;;;;8.58;5.60;;;;;;;21.29;100.00;98543.23;1704047;83;21032;-72
2022/07/10 03:57:54;;;;;;;8.43;5.42;;;;;;;21.34;100.00;98552.84;1694381;84;21015;-72
2022/07/10 04:00:26;;;;;;;10.28;5.25;;;;;;;21.38;100.00;98549.80;1703859;84;21072;-72
2022/07/10 04:03:03;;;;;;;9.93;5.27;;;;;;;21.43;100.00;98559.41;1704313;83;21044;-71
2022/07/10 04:05:30;;;;;;;7.20;4.90;;;;;;;21.50;100.00;98565.22;1694374;84;21060;-72
2022/07/10 04:07:57;;;;;;;9.40;5.22;;;;;;;21.54;100.00;98570.42;1704053;84;21044;-73
2022/07/10 04:10:28;;;;;;;10.35;5.45;;;;;;;21.59;100.00;98578.66;1704066;84;21072;-72
2022/07/10 04:12:55;;;;;;;7.72;5.17;;;;;;;21.63;100.00;98578.37;1694052;84;21053;-73
2022/07/10 04:15:22;;;;;;;6.58;5.20;;;;;;;21.67;100.00;98591.82;1701665;84;21097;-73
2022/07/10 04:17:49;;;;;;;9.43;5.45;;;;;;;21.74;100.00;98595.66;1672509;84;21041;-73
2022/07/10 04:20:16;;;;;;;9.20;4.83;;;;;;;21.81;100.00;98592.06;1701877;83;21531;-73
2022/07/10 04:22:43;;;;;;;8.68;5.15;;;;;;;21.90;100.00;98606.91;1672457;84;20994;-73
2022/07/10 04:25:11;;;;;;;7.55;4.97;;;;;;;22.01;100.00;98617.33;1701840;83;21061;-72
2022/07/10 04:27:39;;;;;;;9.70;5.20;;;;;;;22.18;100.00;98626.04;1702134;84;21567;-73
2022/07/10 04:30:07;;;;;;;9.43;4.87;;;;;;;22.36;100.00;98633.43;1701724;84;21014;-73
2022/07/10 04:32:35;;;;;;;10.58;5.05;;;;;;;22.54;100.00;98642.44;1672770;84;21025;-73
2022/07/10 04:35:02;;;;;;;8.98;4.80;;;;;;;22.72;100.00;98647.03;1702936;83;21021;-72
2022/07/10 04:37:29;;;;;;;10.48;5.60;;;;;;;22.91;100.00;98656.80;1703791;84;21515;-72
2022/07/10 04:39:56;;;;;;;8.28;4.87;;;;;;;23.10;100.00;98661.93;1672379;84;21499;-72
2022/07/10 04:42:23;;;;;;;8.53;4.97;;;;;;;23.28;100.00;98675.60;1672334;84;21081;-72
2022/07/10 04:44:50;;;;;;;8.40;5.37;;;;;;;23.47;100.00;98685.35;1701572;84;21103;-72
2022/07/10 04:47:17;;;;;;;5.80;4.85;;;;;;;23.67;100.00;98684.90;1672625;84;21013;-73
2022/07/10 04:49:44;;;;;;;7.75;4.95;;;;;;;23.86;100.00;98684.47;1702024;84;21034;-73
2022/07/10 04:52:11;;;;;;;7.47;5.22;;;;;;;24.06;100.00;98695.88;1672413;84;21526;-72
2022/07/10 04:54:39;;;;;;;10.38;5.17;;;;;;;24.25;100.00;98700.62;1702240;84;21578;-72
2022/07/10 04:57:06;;;;;;;6.87;5.25;;;;;;;24.42;100.00;98723.64;1701893;84;21033;-73
2022/07/10 04:59:33;;;;;;;6.75;5.28;;;;;;;24.58;100.00;98726.50;1701530;84;21060;-73
2022/07/10 05:02:00;;;;;;;9.45;5.47;;;;;;;24.74;100.00;98731.84;1701780;84;21069;-73
2022/07/10 05:04:28;;;;;;;8.18;5.10;;;;;;;24.89;100.00;98735.76;1701864;83;21606;-72
2022/07/10 05:06:55;;;;;;;8.23;5.00;;;;;;;25.05;100.00;98730.84;1672403;84;21035;-73
2022/07/10 05:09:22;;;;;;;6.75;5.08;;;;;;;25.20;100.00;98730.63;1701752;84;21089;-72
2022/07/10 05:11:49;;;;;;;8.55;5.30;;;;;;;25.28;100.00;98739.39;1672437;84;20994;-73
2022/07/10 05:14:16;;;;;;;8.03;4.95;;;;;;;25.33;100.00;98738.75;1701581;84;21041;-74
2022/07/10 05:16:43;;;;;;;6.95;5.05;;;;;;;25.32;100.00;98732.97;1701820;84;21006;-72
2022/07/10 05:19:11;;;;;;;7.67;5.30;;;;;;;25.27;100.00;98727.52;1701874;84;21073;-73
2022/07/10 05:21:38;;;;;;;8.18;5.30;;;;;;;25.19;100.00;98729.53;1701033;84;21037;-74
2022/07/10 05:24:06;;;;;;;6.75;5.40;;;;;;;25.12;100.00;98714.69;1672316;84;21094;-74
2022/07/10 05:26:33;;;;;;;8.53;5.40;;;;;;;25.04;100.00;98708.47;1701794;84;21021;-73
2022/07/10 05:29:00;;;;;;;9.43;4.92;;;;;;;24.98;100.00;98686.99;1701489;84;21026;-73
2022/07/10 05:31:27;;;;;;;10.10;5.30;;;;;;;25.04;100.00;98681.36;1702191;84;21081;-73
2022/07/10 05:33:54;;;;;;;12.82;5.62;;;;;;;25.24;100.00;98668.61;1702028;84;21136;-72
2022/07/10 05:36:22;;;;;;;9.88;5.62;;;;;;;25.45;100.00;98672.46;1702014;83;21041;-72
2022/07/10 05:38:49;;;;;;;9.15;5.50;;;;;;;25.54;100.00;98681.70;1701755;84;21062;-73
2022/07/10 05:41:16;;;;;;;7.45;5.78;;;;;;;25.50;100.00;98685.64;1673332;84;21057;-74
2022/07/10 05:43:43;;;;;;;9.05;5.58;;;;;;;25.48;100.00;98682.90;1701575;84;21018;-71
2022/07/10 05:46:10;;;;;;;11.95;6.35;;;;;;;25.45;100.00;98691.83;1701874;84;21088;-73
2022/07/10 05:48:38;;;;;;;10.93;6.08;;;;;;;25.37;100.00;98696.93;1701257;83;21033;-73
2022/07/10 05:51:05;;;;;;;11.30;6.10;;;;;;;25.31;100.00;98699.50;1701682;84;21598;-73
2022/07/10 05:53:32;;;;;;;8.78;6.25;;;;;;;25.44;100.00;98701.23;1701987;83;21006;-72
2022/07/10 05:56:01;;;;;;;10.43;6.15;;;;;;;25.55;100.00;98698.02;1701229;84;21013;-73
2022/07/10 05:58:29;;;;;;;16.35;6.40;;;;;;;25.60;100.00;98697.66;1701964;84;21486;-72
2022/07/10 06:00:56;;;;;;;12.58;5.90;;;;;;;25.58;100.00;98703.48;1701877;83;21059;-72
2022/07/10 06:03:24;;;;;;;10.13;5.58;;;;;;;25.50;100.00;98698.66;1700547;84;21137;-71
2022/07/10 06:05:51;;;;;;;9.08;5.97;;;;;;;25.53;100.00;98693.34;1701500;84;21069;-71
2022/07/10 06:08:18;;;;;;;11.60;5.72;;;;;;;25.76;100.00;98690.17;1701926;83;21080;-72
2022/07/10 06:10:46;;;;;;;12.45;6.37;;;;;;;26.14;100.00;98692.00;1701846;83;21061;-72
2022/07/10 06:13:13;;;;;;;11.90;6.00;;;;;;;26.56;100.00;98702.52;1698831;83;21148;-73
2022/07/10 06:15:40;;;;;;;12.07;6.00;;;;;;;26.82;100.00;98711.68;1681755;85;21571;-73
2022/07/10 06:18:08;;;;;;;9.68;5.80;;;;;;;26.87;100.00;98717.93;1682286;85;21042;-73
2022/07/10 06:20:35;;;;;;;8.38;5.67;;;;;;;26.81;100.00;98707.28;1683506;85;21105;-72
2022/07/10 06:23:02;;;;;;;8.63;5.62;;;;;;;26.64;100.00;98700.98;1683512;85;21014;-71
2022/07/10 06:25:30;;;;;;;7.35;5.90;;;;;;;26.48;100.00;98696.30;1682511;85;21121;-72
2022/07/10 06:27:57;;;;;;;11.80;5.90;;;;;;;26.32;100.00;98692.45;1682856;85;21051;-73
2022/07/10 06:30:24;;;;;;;9.33;5.95;;;;;;;26.22;100.00;98691.27;1682483;85;21010;-73
2022/07/10 06:32:51;;;;;;;7.47;5.50;;;;;;;26.10;100.00;98687.63;1636782;85;21030;-73
2022/07/10 06:35:18;;;;;;;10.98;6.08;;;;;;;26.03;100.00;98684.45;1659289;85;21082;-72
2022/07/10 06:37:45;;;;;;;9.73;6.12;;;;;;;26.00;100.00;98678.70;1682644;85;21003;-73
2022/07/10 06:40:16;;;;;;;11.18;5.78;;;;;;;26.12;100.00;98667.94;1682409;85;20998;-72
2022/07/10 06:42:43;;;;;;;12.07;6.30;;;;;;;26.48;100.00;98660.27;1682920;85;21097;-73
2022/07/10 06:45:11;;;;;;;9.78;6.85;;;;;;;26.96;100.00;98661.73;1682185;85;21078;-71
2022/07/10 06:47:57;;;;;;;14.20;8.50;;;;;;;27.43;100.00;98665.08;1682307;85;21046;-72
2022/07/10 06:50:25;;;;;;;17.75;8.88;;;;;;;27.85;100.00;98654.51;1662584;85;21083;-73
2022/07/10 06:52:52;;;;;;;18.67;10.25;;;;;;;28.31;100.00;98645.48;1665935;85;21029;-73
2022/07/10 06:55:20;;;;;;;19.32;10.50;;;;;;;28.72;100.00;98657.64;1683012;85;21076;-73
2022/07/10 06:57:47;;;;;;;15.80;9.25;;;;;;;29.08;100.00;98675.98;1705953;83;20979;-73
2022/07/10 07:00:15;;;;;;;18.50;9.08;;;;;;;29.41;100.00;98685.81;1682552;85;21019;-72
2022/07/10 07:02:43;;;;;;;13.78;8.48;;;;;;;29.70;100.00;98697.07;1682242;85;21097;-73
2022/07/10 07:05:10;;;;;;;14.45;7.53;;;;;;;30.01;100.00;98711.93;1682540;85;21122;-72
2022/07/10 07:07:38;;;;;;;15.25;8.50;;;;;;;30.18;100.00;98715.25;1659284;85;21030;-71
2022/07/10 07:10:07;;;;;;;13.55;7.28;;;;;;;30.23;100.00;98719.25;1683106;84;21026;-73
2022/07/10 07:12:35;;;;;;;13.78;7.65;;;;;;;30.10;100.00;98716.89;1694174;84;21038;-73
2022/07/10 07:15:02;;;;;;;17.82;7.87;;;;;;;30.18;100.00;98709.67;1671325;85;21060;-73
2022/07/10 07:17:33;;;;;;;15.63;7.30;;;;;;;30.44;100.00;98713.77;1677175;85;21088;-71
2022/07/10 07:25:33;;;;;;;13.15;6.92;;;;;;;30.86;100.00;98729.19;1677204;85;21061;-72
2022/07/10 07:28:01;;;;;;;14.33;7.15;;;;;;;30.66;100.00;98731.59;1677257;84;21029;-72
2022/07/10 07:30:29;;;;;;;10.15;6.60;;;;;;;30.49;100.00;98728.89;1677221;85;21047;-73
2022/07/10 07:32:56;;;;;;;13.43;7.03;;;;;;;30.37;100.00;98731.61;1656272;85;21127;-73
2022/07/10 07:35:23;;;;;;;12.60;6.83;;;;;;;30.26;100.00;98738.06;1677319;85;21005;-71
2022/07/10 07:37:50;;;;;;;16.32;7.42;;;;;;;30.20;100.00;98738.84;1677381;85;21092;-72
2022/07/10 07:40:23;;;;;;;16.57;6.33;;;;;;;30.23;100.00;98741.55;1677443;84;21103;-72
2022/07/10 07:42:51;;;;;;;10.28;6.12;;;;;;;30.32;100.00;98752.67;1677368;85;21529;-75
2022/07/10 07:45:18;;;;;;;15.28;6.95;;;;;;;30.33;100.00;98757.08;1677391;85;21032;-72
2022/07/10 07:47:49;;;;;;;12.00;6.22;;;;;;;30.22;100.00;98758.02;1677150;84;21566;-72
2022/07/10 07:50:20;;;;;;;9.90;6.80;;;;;;;30.04;100.00;98762.24;1677188;85;21066;-72
2022/07/10 07:52:47;;;;;;;12.43;6.58;;;;;;;29.79;100.00;98768.70;1656137;85;21097;-72
2022/07/10 07:55:15;;;;;;;9.90;6.05;;;;;;;29.49;100.00;98768.52;1677308;85;21068;-72
2022/07/10 07:57:43;;;;;;;12.65;6.87;;;;;;;29.26;100.00;98767.86;1655906;85;21691;-72
2022/07/10 08:00:12;;;;;;;18.20;7.10;;;;;;;29.08;100.00;98767.80;1677089;86;21060;-73
2022/07/10 08:02:40;;;;;;;18.20;7.30;;;;;;;28.88;100.00;98767.86;1677270;85;21553;-72
2022/07/10 08:05:09;;;;;;;17.12;7.12;;;;;;;28.74;100.00;98767.98;1677387;85;21075;-72
2022/07/10 08:07:38;;;;;;;13.30;6.70;;;;;;;28.68;100.00;98767.05;1656546;85;21123;-70
2022/07/10 08:10:08;;;;;;;12.82;6.58;;;;;;;28.73;100.00;98764.94;1678941;85;21100;-72
2022/07/10 08:12:35;;;;;;;14.25;6.60;;;;;;;28.84;100.00;98771.02;1574474;89;21073;-73
2022/07/10 08:15:02;;;;;;;15.58;6.65;;;;;;;28.96;100.00;98762.05;1637335;86;21129;-73
2022/07/10 08:17:30;;;;;;;12.28;6.72;;;;;;;29.11;100.00;98765.77;1638795;86;21136;-72
2022/07/10 08:19:58;;;;;;;10.63;6.55;;;;;;;29.37;100.00;98778.10;1668281;85;21120;-71
2022/07/10 08:22:25;;;;;;;11.28;6.72;;;;;;;29.68;100.00;98778.75;1650495;85;21104;-72
2022/07/10 08:24:53;;;;;;;10.80;6.72;;;;;;;29.98;100.00;98798.97;1677365;85;21076;-71
2022/07/10 08:27:21;;;;;;;13.25;6.62;;;;;;;30.19;100.00;98801.88;1677507;85;21064;-72
2022/07/10 08:29:48;;;;;;;11.88;6.95;;;;;;;30.22;100.00;98826.31;1654887;85;21049;-72
2022/07/10 08:32:15;;;;;;;10.75;6.40;;;;;;;30.15;100.00;98835.76;1677357;85;21056;-73
2022/07/10 08:34:42;;;;;;;10.13;6.28;;;;;;;30.09;100.00;98833.14;1654679;85;21530;-72
2022/07/10 08:37:10;;;;;;;10.43;6.47;;;;;;;30.13;100.00;98832.48;1654873;85;21119;-73
2022/07/10 08:39:37;;;;;;;10.58;6.37;;;;;;;30.05;100.00;98816.03;1619507;85;21643;-73
2022/07/10 08:42:06;;;;;;;16.97;7.40;;;;;;;30.13;100.00;98811.58;1677734;85;21021;-72
2022/07/10 08:44:34;;;;;;;12.43;7.30;;;;;;;30.20;100.00;98807.13;1643042;86;21053;-71
2022/07/10 08:47:02;;;;;;;12.18;6.92;;;;;;;30.19;100.00;98823.62;1665882;85;21077;-72
2022/07/10 08:49:31;;;;;;;14.80;7.50;;;;;;;30.12;100.00;98830.84;1661278;85;21598;-72
2022/07/10 08:52:11;;;;;;;15.15;8.10;;;;;;;30.06;100.00;98834.37;1661286;85;21092;-71
2022/07/10 08:54:38;;;;;;;13.68;7.58;;;;;;;29.90;100.00;98838.25;1664472;86;21057;-73
2022/07/10 08:57:05;;;;;;;20.50;8.43;;;;;;;29.59;100.00;98832.80;1673378;86;21017;-72
2022/07/10 08:59:33;;;;;;;14.95;8.00;;;;;;;29.44;100.00;98826.57;1673319;86;21049;-72
2022/07/10 09:02:01;;;;;;;19.17;8.90;;;;;;;29.39;100.00;98818.38;1673291;86;21748;-72
2022/07/10 09:04:28;;;;;;;16.57;8.05;;;;;;;29.39;100.00;98815.59;1673270;86;21079;-73
2022/07/10 09:06:55;;;;;;;17.45;8.33;;;;;;;29.29;100.00;98805.61;1673280;86;21037;-75
2022/07/10 09:09:23;;;;;;;18.62;8.20;;;;;;;29.31;100.00;98792.17;1673383;86;21037;-75
2022/07/10 09:11:58;;;;;;;16.23;8.73;;;;;;;29.32;100.00;98772.95;1668890;86;21072;-75
2022/07/10 09:14:28;;;;;;;13.50;8.40;;;;;;;29.24;100.00;98762.62;1609923;89;21590;-75
2022/07/10 09:16:55;;;;;;;17.37;9.15;;;;;;;29.19;100.00;98753.61;1707899;84;21018;-76
2022/07/10 09:19:27;;;;;;;22.02;9.15;;;;;;;29.21;100.00;98744.36;1711826;83;21030;-76
2022/07/10 09:22:05;;;;;;;18.07;8.67;;;;;;;29.35;100.00;98739.45;1711987;84;21021;-75
2022/07/10 09:24:45;;;;;;;20.75;9.38;;;;;;;29.53;100.00;98742.49;1711798;84;21022;-76
2022/07/10 09:27:15;;;;;;;17.57;9.00;;;;;;;29.64;100.00;98744.91;1711754;83;21035;-75
2022/07/10 09:32:19;;;;;;;16.05;8.43;;;;;;;29.46;100.00;98747.70;1580709;91;21074;-74
2022/07/10 09:37:41;;;;;;;13.80;8.20;;;;;;;29.31;100.00;98735.70;1536735;92;21569;-74
2022/07/10 09:40:08;;;;;;;15.38;7.65;;;;;;;29.42;100.00;98731.42;1509166;94;21574;-74
2022/07/10 09:42:39;;;;;;;14.13;7.33;;;;;;;29.65;100.00;98728.46;1570860;91;21085;-73
2022/07/10 09:45:18;;;;;;;16.80;7.15;;;;;;;29.94;100.00;98732.52;1558535;91;21547;-73
2022/07/10 09:47:57;;;;;;;35.85;7.80;;;;;;;30.24;100.00;98739.82;1583132;90;21105;-74
2022/07/10 09:50:29;;;;;;;18.30;6.53;;;;;;;30.59;100.00;98745.26;1583174;89;21626;-74
2022/07/10 09:53:03;;;;;;;14.75;6.42;;;;;;;30.85;100.00;98754.88;1583606;91;21078;-74
2022/07/10 09:55:34;;;;;;;11.83;5.83;;;;;;;31.19;100.00;98757.23;1580656;90;21068;-73
2022/07/10 09:58:07;;;;;;;25.02;6.67;;;;;;;31.68;100.00;98758.66;1578679;90;21089;-75
2022/07/10 10:00:35;;;;;;;;;;;;;;;32.13;100.00;98745.33;1535758;94;21108;-74
2022/07/10 10:03:07;;;;;;;27.98;6.90;;;;;;;32.57;100.00;98751.80;1533301;94;20117;-75
2022/07/10 10:05:55;;;;;;;14.10;5.87;;;;;;;32.73;100.00;98766.15;1507132;93;21062;-74
2022/07/10 10:08:25;;;;;;;12.05;6.10;;;;;;;32.52;100.00;98764.83;1534110;93;21085;-75
2022/07/10 10:10:56;;;;;;;12.43;5.97;;;;;;;32.29;100.00;98752.46;1506867;93;21200;-75
2022/07/10 10:13:27;;;;;;;19.85;6.42;;;;;;;32.11;100.00;98754.06;1507270;94;21623;-75
2022/07/10 10:15:54;;;;;;;14.60;6.17;;;;;;;31.95;100.00;98747.47;1533484;93;21134;-74
2022/07/10 10:18:24;;;;;;;14.87;6.65;;;;;;;31.86;100.00;98753.73;1507293;95;21606;-73
2022/07/10 10:20:54;;;;;;;16.82;7.65;;;;;;;31.76;100.00;98759.16;1507575;95;21121;-73
2022/07/10 10:23:23;;;;;;;16.15;7.10;;;;;;;31.72;100.00;98749.84;1506332;95;21102;-73
2022/07/10 10:25:55;;;;;;;16.27;7.97;;;;;;;31.69;100.00;98751.33;1506814;95;21193;-74
2022/07/10 10:28:23;;;;;;;15.88;8.08;;;;;;;31.59;100.00;98751.19;1508888;93;21124;-72
2022/07/10 10:30:58;;;;;;;13.70;8.15;;;;;;;31.45;100.00;98749.23;1534933;93;21143;-73
2022/07/10 10:33:39;;;;;;;16.97;8.48;;;;;;;31.28;100.00;98754.96;1495952;96;21189;-72
2022/07/10 10:36:07;;;;;;;24.95;9.20;;;;;;;31.06;100.00;98754.14;1498666;94;21628;-72
2022/07/10 10:38:57;;;;;;;18.77;8.70;;;;;;;30.85;100.00;98749.30;1533833;94;21065;-72
2022/07/10 10:41:33;;;;;;;15.80;8.20;;;;;;;30.61;100.00;98756.08;1511619;95;21093;-73
2022/07/10 10:44:17;;;;;;;13.55;7.50;;;;;;;30.35;100.00;98754.80;1460271;98;21086;-72
2022/07/10 10:47:02;;;;;;;16.35;8.88;;;;;;;30.15;100.00;98749.35;1460135;97;21114;-73
2022/07/10 10:49:50;;;;;;;17.05;8.58;;;;;;;29.91;100.00;98745.16;1460071;98;21122;-72
2022/07/10 10:52:18;;;;;;;15.68;7.92;;;;;;;29.71;100.00;98750.25;1501466;95;21101;-72
2022/07/10 10:55:03;;;;;;;17.35;9.50;;;;;;;29.60;100.00;98743.94;1501486;96;21127;-72
2022/07/10 11:00:07;;;;;;;17.42;10.03;;;;;;;29.66;100.00;98743.45;1456135;98;21103;-73
2022/07/10 11:02:39;;;;;;;16.45;9.35;;;;;;;29.86;100.00;98732.22;1479731;96;21606;-72
2022/07/10 11:05:18;;;;;;;18.77;9.65;;;;;;;30.12;100.00;98739.70;1470520;98;21557;-72
2022/07/10 11:08:03;;;;;;;17.10;9.25;;;;;;;30.42;100.00;98735.58;1470391;98;21084;-72
2022/07/10 11:10:39;;;;;;;24.25;9.55;;;;;;;30.74;100.00;98732.72;1470281;98;21192;-73
2022/07/10 11:13:11;;;;;;;29.30;10.03;;;;;;;31.06;100.00;98726.78;1481462;96;21091;-74
2022/07/10 11:15:46;;;;;;;18.95;9.75;;;;;;;31.21;100.00;98735.95;1414207;101;21140;-73
2022/07/10 11:18:17;;;;;;;21.05;9.15;;;;;;;31.19;100.00;98739.08;1412290;100;21198;-72
2022/07/10 11:20:49;;;;;;;16.00;8.78;;;;;;;31.09;100.00;98740.06;1464767;98;21143;-73
2022/07/10 11:23:56;;;;;;;19.40;9.18;;;;;;;30.94;100.00;98734.52;1464768;98;21167;-71
2022/07/10 11:26:57;;;;;;;20.50;9.55;;;;;;;30.84;100.00;98731.50;1465018;98;21079;-73
2022/07/10 11:29:24;;;;;;;16.45;9.13;;;;;;;30.81;100.00;98734.95;1472904;94;21142;-72
2022/07/10 11:31:54;;;;;;;22.32;9.20;;;;;;;30.74;100.00;98738.86;1527451;94;21090;-74
2022/07/10 11:34:27;;;;;;;26.05;9.35;;;;;;;30.64;100.00;98736.70;1527757;94;21058;-74
2022/07/10 11:36:54;;;;;;;22.73;8.50;;;;;;;30.50;100.00;98744.48;1525180;94;21031;-73
2022/07/10 11:39:24;;;;;;;14.70;8.38;;;;;;;30.33;100.00;98743.94;1527908;94;21023;-74
2022/07/10 11:41:52;;;;;;;18.82;8.03;;;;;;;30.18;100.00;98743.13;1515030;94;21086;-73
2022/07/10 11:44:20;;;;;;;15.00;8.03;;;;;;;30.05;100.00;98738.00;1550029;92;21026;-73